Time;durP1;ratioP1;P1;durP2;ratioP2;P2;SDS_P1;SDS_P2;PMS_P1;PMS_P2;Temp;Humidity;BMP_temperature;BMP_pressure;BME280_temperature;BME280_humidity;BME280_pressure;Samples;Min_cycle;Max_cycle;Signal;HPM_P1;HPM_P2
2024/04/20 00:01:49;;;;;;;;;;;;;;;7.41;58.48;100710.16;5282178;27;19927;-86
2024/04/20 00:04:14;;;;;;;;;;;;;;;7.32;58.72;100710.47;5282625;27;19926;-83
2024/04/20 00:06:39;;;;;;;;;;;;;;;7.37;58.38;100716.28;5282096;27;20349;-85
2024/04/20 00:09:05;;;;;;;;;;;;;;;7.45;58.39;100704.00;5282091;27;20229;-84
2024/04/20 00:11:30;;;;;;;;;;;;;;;7.46;58.56;100710.81;5282211;27;19927;-85
2024/04/20 00:13:55;;;;;;;;;;;;;;;7.45;58.34;100704.84;5282157;27;20022;-84
2024/04/20 00:16:21;;;;;;;;;;;;;;;7.45;59.05;100706.56;5281630;27;19934;-84
2024/04/20 00:18:46;;;;;;;;;;;;;;;7.52;59.20;100704.63;5282015;27;20263;-84
2024/04/20 00:21:11;;;;;;;;;;;;;;;7.39;58.19;100699.06;5281957;27;19934;-84
2024/04/20 00:23:37;;;;;;;;;;;;;;;7.32;58.24;100698.44;5282295;27;20353;-84
2024/04/20 00:26:05;;;;;;;;;;;;;;;7.32;58.85;100698.44;5281836;27;20244;-84
2024/04/20 00:28:31;;;;;;;;;;;;;;;7.20;58.62;100686.00;5312126;26;20376;-84
2024/04/20 00:30:58;;;;;;;;;;;;;;;7.13;58.57;100687.94;5281321;27;19958;-83
2024/04/20 00:33:23;;;;;;;;;;;;;;;7.09;60.18;100680.38;5281758;27;19934;-84
2024/04/20 00:35:48;;;;;;;;;;;;;;;7.14;60.27;100681.88;5281875;27;19935;-84
2024/04/20 00:38:14;;;;;;;;;;;;;;;7.15;59.47;100677.59;5281654;27;19934;-84
2024/04/20 00:40:39;;;;;;;;;;;;;;;7.16;59.90;100662.09;5253831;27;20355;-84
2024/04/20 00:43:04;;;;;;;;;;;;;;;7.17;60.05;100663.75;5281602;27;20340;-84
2024/04/20 00:45:30;;;;;;;;;;;;;;;7.23;59.63;100667.03;5281767;27;20355;-84
2024/04/20 00:47:56;;;;;;;;;;;;;;;7.23;59.52;100667.03;5281075;27;19934;-84
2024/04/20 00:50:21;;;;;;;;;;;;;;;7.21;60.02;100667.09;5281372;27;19934;-84
2024/04/20 00:52:46;;;;;;;;;;;;;;;7.23;60.41;100660.16;5281752;27;19926;-84
2024/04/20 00:55:12;;;;;;;;;;;;;;;7.28;59.96;100668.56;5281211;27;19938;-84
2024/04/20 00:57:37;;;;;;;;;;;;;;;7.37;59.98;100675.09;5283883;27;19926;-84
2024/04/20 01:00:03;;;;;;;;;;;;;;;7.44;59.48;100679.16;5284401;27;19949;-83
2024/04/20 01:02:28;;;;;;;;;;;;;;;7.43;59.02;100678.31;5284995;27;19927;-84
2024/04/20 01:04:54;;;;;;;;;;;;;;;7.50;59.68;100670.38;5284835;27;19926;-84
2024/04/20 01:07:19;;;;;;;;;;;;;;;7.43;58.29;100682.63;5284278;27;19934;-84
2024/04/20 01:09:44;;;;;;;;;;;;;;;7.38;59.68;100687.09;5284755;27;19926;-84
2024/04/20 01:12:10;;;;;;;;;;;;;;;7.41;58.38;100687.81;5284673;27;20256;-84
2024/04/20 01:14:35;;;;;;;;;;;;;;;7.40;58.85;100690.47;5314037;27;20295;-84
2024/04/20 01:17:02;;;;;;;;;;;;;;;7.44;58.67;100684.31;5284333;27;19926;-84
2024/04/20 01:19:28;;;;;;;;;;;;;;;7.45;58.64;100688.56;5285099;27;20241;-84
2024/04/20 01:21:53;;;;;;;;;;;;;;;7.47;57.53;100689.31;5284608;27;19926;-85
2024/04/20 01:24:21;;;;;;;;;;;;;;;7.49;58.27;100687.56;5284443;27;20345;-84
2024/04/20 01:26:46;;;;;;;;;;;;;;;7.49;58.71;100685.00;5256113;27;19926;-84
2024/04/20 01:29:12;;;;;;;;;;;;;;;7.50;58.89;100691.81;5314156;26;20250;-84
2024/04/20 01:31:37;;;;;;;;;;;;;;;7.50;59.17;100689.25;5284330;27;19926;-84
2024/04/20 01:34:02;;;;;;;;;;;;;;;7.47;58.80;100684.19;5284121;27;19938;-85
2024/04/20 01:36:28;;;;;;;;;;;;;;;7.49;59.04;100682.41;5284429;27;19934;-84
2024/04/20 01:38:54;;;;;;;;;;;;;;;7.50;58.94;100681.53;5284037;27;19942;-84
2024/04/20 01:41:19;;;;;;;;;;;;;;;7.55;58.88;100673.63;5284331;27;20289;-84
2024/04/20 01:43:45;;;;;;;;;;;;;;;7.56;58.52;100672.72;5314033;27;19927;-84
2024/04/20 01:46:10;;;;;;;;;;;;;;;7.59;58.96;100670.06;5284004;27;19926;-84
2024/04/20 01:48:35;;;;;;;;;;;;;;;7.60;58.82;100671.75;5283954;27;19927;-84
2024/04/20 01:51:01;;;;;;;;;;;;;;;7.59;58.59;100676.03;5283724;27;19981;-84
2024/04/20 01:53:26;;;;;;;;;;;;;;;7.58;58.47;100669.22;5284058;27;19938;-85
2024/04/20 01:55:51;;;;;;;;;;;;;;;7.56;59.11;100660.69;5284034;27;20366;-84
2024/04/20 01:58:17;;;;;;;;;;;;;;;7.64;58.75;100663.00;5283524;27;20276;-83
2024/04/20 02:00:42;;;;;;;;;;;;;;;7.70;58.44;100652.47;5284077;27;19937;-83
2024/04/20 02:03:11;;;;;;;;;;;;;;;7.71;58.05;100655.00;5283930;27;19927;-84
2024/04/20 02:05:37;;;;;;;;;;;;;;;7.67;58.54;100656.03;5284901;27;20005;-85
2024/04/20 02:08:02;;;;;;;;;;;;;;;7.69;58.23;100656.78;5283194;27;20414;-85
2024/04/20 02:10:27;;;;;;;;;;;;;;;7.71;58.40;100655.00;5283838;27;19933;-84
2024/04/20 02:12:53;;;;;;;;;;;;;;;7.75;58.33;100651.41;5283529;27;19926;-85
2024/04/20 02:15:18;;;;;;;;;;;;;;;7.78;58.62;100654.78;5283021;27;19942;-84
2024/04/20 02:17:43;;;;;;;;;;;;;;;7.81;58.48;100654.66;5283450;27;19926;-84
2024/04/20 02:20:09;;;;;;;;;;;;;;;7.83;59.18;100652.88;5283471;27;19938;-84
2024/04/20 02:22:34;;;;;;;;;;;;;;;7.78;60.33;100655.63;5283498;27;20245;-84
2024/04/20 02:25:00;;;;;;;;;;;;;;;7.83;59.72;100652.88;5283207;27;19927;-84
2024/04/20 02:27:25;;;;;;;;;;;;;;;7.82;60.04;100653.75;5282751;27;19934;-84
2024/04/20 02:29:50;;;;;;;;;;;;;;;7.70;60.02;100653.31;5283408;27;19927;-83
2024/04/20 02:32:16;;;;;;;;;;;;;;;7.74;59.36;100652.31;5283334;27;20414;-84
2024/04/20 02:34:41;;;;;;;;;;;;;;;7.73;59.37;100660.94;5254883;27;19938;-84
2024/04/20 02:37:09;;;;;;;;;;;;;;;7.82;59.08;100656.34;5282989;27;19926;-84
2024/04/20 02:39:34;;;;;;;;;;;;;;;7.79;59.58;100661.63;5283831;27;20349;-85
2024/04/20 02:41:59;;;;;;;;;;;;;;;7.81;59.38;100670.13;5282847;27;19938;-84
2024/04/20 02:44:25;;;;;;;;;;;;;;;7.87;59.77;100659.59;5283046;27;19927;-84
2024/04/20 02:46:50;;;;;;;;;;;;;;;7.84;59.27;100670.00;5282939;27;19946;-83
2024/04/20 02:49:15;;;;;;;;;;;;;;;7.78;59.12;100665.94;5313015;26;19926;-84
2024/04/20 02:51:41;;;;;;;;;;;;;;;7.70;59.49;100668.78;5255312;27;20349;-85
2024/04/20 02:54:06;;;;;;;;;;;;;;;7.67;59.32;100668.03;5283254;27;20340;-84
2024/04/20 02:56:31;;;;;;;;;;;;;;;7.62;59.42;100669.94;5282927;27;20312;-84
2024/04/20 02:58:57;;;;;;;;;;;;;;;7.62;59.43;100664.78;5282971;27;19934;-84
2024/04/20 03:01:23;;;;;;;;;;;;;;;7.59;59.66;100660.59;5255285;27;19951;-83
2024/04/20 03:03:48;;;;;;;;;;;;;;;7.59;59.64;100658.03;5255221;27;19926;-85
2024/04/20 03:06:15;;;;;;;;;;;;;;;7.51;59.52;100657.47;5254893;27;19934;-83
2024/04/20 03:08:40;;;;;;;;;;;;;;;7.40;60.10;100665.56;5255049;27;19927;-83
2024/04/20 03:11:06;;;;;;;;;;;;;;;7.38;59.98;100666.53;5282549;27;19927;-84
2024/04/20 03:13:31;;;;;;;;;;;;;;;7.34;59.74;100670.91;5283088;27;20240;-85
2024/04/20 03:16:00;;;;;;;;;;;;;;;7.26;59.88;100674.63;5282562;27;20340;-84
2024/04/20 03:18:26;;;;;;;;;;;;;;;7.15;60.88;100675.84;5253762;27;19934;-84
2024/04/20 03:20:51;;;;;;;;;;;;;;;7.10;60.90;100675.19;5254135;27;19926;-84
2024/04/20 03:23:16;;;;;;;;;;;;;;;7.03;61.23;100671.13;5282520;27;19926;-84
2024/04/20 03:25:42;;;;;;;;;;;;;;;7.03;60.78;100681.41;5282325;27;19927;-84
2024/04/20 03:28:07;;;;;;;;;;;;;;;7.06;60.40;100676.16;5254099;27;20323;-84
2024/04/20 03:30:32;;;;;;;;;;;;;;;7.05;60.70;100682.19;5282588;27;20360;-84
2024/04/20 03:32:58;;;;;;;;;;;;;;;6.99;60.78;100679.84;5312498;27;19926;-84
2024/04/20 03:35:23;;;;;;;;;;;;;;;7.01;60.71;100677.22;5281950;27;19927;-84
2024/04/20 03:37:48;;;;;;;;;;;;;;;7.00;60.68;100673.81;5282168;27;19930;-84
2024/04/20 03:40:14;;;;;;;;;;;;;;;7.03;60.99;100680.56;5254225;27;20001;-84
2024/04/20 03:42:39;;;;;;;;;;;;;;;6.96;61.47;100687.63;5282310;27;19926;-84
2024/04/20 03:45:04;;;;;;;;;;;;;;;6.98;61.57;100692.72;5282242;27;19927;-84
2024/04/20 03:47:30;;;;;;;;;;;;;;;6.99;61.46;100694.44;5282284;27;19950;-84
2024/04/20 03:49:55;;;;;;;;;;;;;;;6.94;61.12;100702.28;5254006;27;19997;-84
2024/04/20 03:52:20;;;;;;;;;;;;;;;7.00;61.63;100691.81;5282556;27;19931;-85
2024/04/20 03:54:46;;;;;;;;;;;;;;;7.06;61.66;100707.03;5281982;27;19926;-83
2024/04/20 03:57:11;;;;;;;;;;;;;;;7.12;62.24;100701.69;5254281;27;20346;-84
2024/04/20 03:59:36;;;;;;;;;;;;;;;7.22;61.71;100701.38;5282393;27;20248;-85
2024/04/20 04:02:02;;;;;;;;;;;;;;;7.26;61.18;100697.78;5312592;27;19926;-83
2024/04/20 04:04:27;;;;;;;;;;;;;;;7.29;60.34;100697.72;5282359;27;19933;-84
2024/04/20 04:06:52;;;;;;;;;;;;;;;7.27;60.42;100707.19;5282293;27;19934;-84
2024/04/20 04:09:18;;;;;;;;;;;;;;;7.24;61.12;100704.72;5253652;27;19933;-85
2024/04/20 04:11:45;;;;;;;;;;;;;;;7.23;61.05;100703.06;5282280;27;19933;-84
2024/04/20 04:14:10;;;;;;;;;;;;;;;7.24;60.45;100721.00;5282431;27;19938;-84
2024/04/20 04:16:35;;;;;;;;;;;;;;;7.31;60.00;100734.53;5282150;27;20253;-84
2024/04/20 04:19:01;;;;;;;;;;;;;;;7.37;59.63;100739.44;5281921;27;19989;-84
2024/04/20 04:21:26;;;;;;;;;;;;;;;7.35;58.96;100736.09;5282549;27;20360;-84
2024/04/20 04:23:52;;;;;;;;;;;;;;;7.28;59.61;100737.22;5281687;27;19938;-84
2024/04/20 04:26:18;;;;;;;;;;;;;;;7.30;59.83;100735.41;5281866;27;19927;-84
2024/04/20 04:28:43;;;;;;;;;;;;;;;7.23;60.52;100734.78;5281380;27;19949;-83
2024/04/20 04:31:08;;;;;;;;;;;;;;;7.28;60.17;100732.06;5281246;27;19933;-86
2024/04/20 04:33:33;;;;;;;;;;;;;;;7.36;59.31;100740.34;5253306;27;19933;-84
2024/04/20 04:35:59;;;;;;;;;;;;;;;7.31;59.62;100743.09;5281354;27;19927;-84
2024/04/20 04:38:25;;;;;;;;;;;;;;;7.31;61.06;100750.81;5311073;27;19934;-84
2024/04/20 04:40:50;;;;;;;;;;;;;;;7.36;60.65;100751.47;5281774;27;20352;-84
2024/04/20 04:43:16;;;;;;;;;;;;;;;7.42;60.50;100765.88;5281452;27;20284;-84
2024/04/20 04:45:41;;;;;;;;;;;;;;;7.44;60.42;100758.94;5253219;27;19942;-85
2024/04/20 04:48:06;;;;;;;;;;;;;;;7.45;60.52;100766.59;5253084;27;20030;-84
2024/04/20 04:50:32;;;;;;;;;;;;;;;7.46;61.44;100767.44;5281301;27;19927;-84
2024/04/20 04:52:58;;;;;;;;;;;;;;;7.62;60.13;100767.78;5253113;27;19933;-84
2024/04/20 04:55:24;;;;;;;;;;;;;;;7.66;60.00;100759.03;5281685;27;19926;-84
2024/04/20 04:57:49;;;;;;;;;;;;;;;7.68;60.01;100763.28;5281373;27;19934;-84
2024/04/20 05:00:14;;;;;;;;;;;;;;;7.66;60.50;100770.19;5281466;27;19933;-83
2024/04/20 05:02:40;;;;;;;;;;;;;;;7.73;60.31;100766.50;5281490;27;19927;-84
2024/04/20 05:05:05;;;;;;;;;;;;;;;7.74;60.14;100778.50;5281100;27;20693;-84
2024/04/20 05:07:30;;;;;;;;;;;;;;;7.83;59.43;100776.50;5252633;27;19927;-84
2024/04/20 05:09:56;;;;;;;;;;;;;;;7.87;59.83;100775.50;5281052;27;19991;-84
2024/04/20 05:12:21;;;;;;;;;;;;;;;7.86;59.69;100774.63;5253191;27;19934;-84
2024/04/20 05:14:47;;;;;;;;;;;;;;;7.96;60.13;100773.44;5252884;27;20222;-84
2024/04/20 05:17:12;;;;;;;;;;;;;;;8.03;59.86;100774.03;5280843;27;20280;-84
2024/04/20 05:19:37;;;;;;;;;;;;;;;8.10;59.57;100772.94;5280669;27;20257;-84
2024/04/20 05:22:02;;;;;;;;;;;;;;;8.24;59.42;100768.09;5280469;27;19930;-84
2024/04/20 05:24:28;;;;;;;;;;;;;;;8.25;59.45;100768.94;5252507;27;19929;-84
2024/04/20 05:26:53;;;;;;;;;;;;;;;8.27;59.69;100773.16;5280546;27;19933;-85
2024/04/20 05:29:18;;;;;;;;;;;;;;;8.28;59.58;100772.28;5252396;27;19931;-85
2024/04/20 05:31:44;;;;;;;;;;;;;;;8.28;59.88;100779.16;5310755;27;19935;-84
2024/04/20 05:34:09;;;;;;;;;;;;;;;8.33;60.35;100778.06;5280462;27;19934;-85
2024/04/20 05:36:34;;;;;;;;;;;;;;;8.24;61.03;100783.56;5252008;27;19926;-84
2024/04/20 05:39:00;;;;;;;;;;;;;;;8.22;61.42;100776.81;5280372;27;19926;-84
2024/04/20 05:41:25;;;;;;;;;;;;;;;8.24;61.16;100777.56;5280645;27;20431;-84
2024/04/20 05:43:50;;;;;;;;;;;;;;;8.21;61.29;100772.53;5283578;27;19954;-84
2024/04/20 05:46:16;;;;;;;;;;;;;;;8.19;61.90;100764.88;5283766;27;19946;-85
2024/04/20 05:48:41;;;;;;;;;;;;;;;8.14;62.35;100765.94;5283397;27;20355;-84
2024/04/20 05:51:07;;;;;;;;;;;;;;;8.17;62.52;100769.25;5283473;27;20375;-84
2024/04/20 05:53:32;;;;;;;;;;;;;;;8.25;62.79;100767.22;5283697;27;19926;-83
2024/04/20 05:55:57;;;;;;;;;;;;;;;8.28;63.12;100769.69;5283718;27;19930;-84
2024/04/20 05:58:23;;;;;;;;;;;;;;;8.32;62.52;100768.66;5283831;27;19926;-84
2024/04/20 06:00:48;;;;;;;;;;;;;;;8.40;62.08;100772.75;5284079;27;19933;-84
2024/04/20 06:03:13;;;;;;;;;;;;;;;8.45;62.35;100775.97;5283959;27;19934;-84
2024/04/20 06:05:40;;;;;;;;;;;;;;;8.57;62.37;100767.78;5283618;27;19934;-84
2024/04/20 06:08:06;;;;;;;;;;;;;;;8.65;62.91;100770.88;5284020;27;19927;-83
2024/04/20 06:10:31;;;;;;;;;;;;;;;8.73;62.64;100773.19;5283801;27;19933;-85
2024/04/20 06:12:57;;;;;;;;;;;;;;;8.82;62.64;100760.75;5283584;27;19927;-84
2024/04/20 06:15:22;;;;;;;;;;;;;;;8.77;63.49;100752.38;5283612;27;19926;-85
2024/04/20 06:17:47;;;;;;;;;;;;;;;8.81;62.78;100742.78;5283527;27;19933;-84
2024/04/20 06:20:13;;;;;;;;;;;;;;;8.84;63.44;100748.63;5313503;27;20391;-85
2024/04/20 06:22:38;;;;;;;;;;;;;;;8.84;63.57;100745.22;5283666;27;19938;-85
2024/04/20 06:25:04;;;;;;;;;;;;;;;8.85;63.82;100740.03;5283361;27;19933;-85
2024/04/20 06:27:31;;;;;;;;;;;;;;;8.89;63.16;100749.31;5283274;27;19926;-85
2024/04/20 06:29:56;;;;;;;;;;;;;;;9.00;62.68;100745.47;5284052;27;19930;-85
2024/04/20 06:32:22;;;;;;;;;;;;;;;9.02;63.20;100746.22;5283748;27;19933;-85
2024/04/20 06:34:47;;;;;;;;;;;;;;;9.11;63.83;100751.00;5254853;27;20377;-84
2024/04/20 06:37:14;;;;;;;;;;;;;;;9.14;63.73;100746.59;5283389;27;19927;-84
2024/04/20 06:39:39;;;;;;;;;;;;;;;9.12;64.48;100747.53;5255416;27;19934;-84
2024/04/20 06:42:05;;;;;;;;;;;;;;;9.19;64.80;100743.81;5313912;27;19997;-84
2024/04/20 06:44:30;;;;;;;;;;;;;;;9.19;64.55;100747.22;5283451;27;19926;-84
2024/04/20 06:46:56;;;;;;;;;;;;;;;9.33;64.06;100741.47;5282908;27;19933;-86
2024/04/20 06:49:21;;;;;;;;;;;;;;;9.44;63.58;100744.47;5312328;27;19934;-85
2024/04/20 06:51:47;;;;;;;;;;;;;;;9.53;63.18;100748.38;5283229;27;19930;-84
2024/04/20 06:54:12;;;;;;;;;;;;;;;9.64;62.77;100745.38;5281625;27;19926;-84
2024/04/20 06:56:38;;;;;;;;;;;;;;;9.61;62.15;100743.72;5282870;27;19926;-85
2024/04/20 06:59:03;;;;;;;;;;;;;;;9.55;62.04;100741.44;5282299;27;19926;-85
2024/04/20 07:01:29;;;;;;;;;;;;;;;9.62;62.17;100742.81;5282991;27;20349;-85
2024/04/20 07:03:54;;;;;;;;;;;;;;;9.69;61.95;100746.00;5254360;27;20222;-85
2024/04/20 07:06:19;;;;;;;;;;;;;;;9.76;62.23;100744.84;5282911;27;20319;-85
2024/04/20 07:08:44;;;;;;;;;;;;;;;9.76;61.69;100750.00;5282544;27;20273;-84
2024/04/20 07:11:10;;;;;;;;;;;;;;;9.74;61.68;100746.66;5253991;27;19934;-84
2024/04/20 07:13:39;;;;;;;;;;;;;;;10.03;61.14;100753.97;5282516;27;19934;-84
2024/04/20 07:16:04;;;;;;;;;;;;;;;10.29;61.08;100746.78;5282473;27;19934;-85
2024/04/20 07:18:30;;;;;;;;;;;;;;;10.51;60.62;100738.88;5281508;27;19978;-85
2024/04/20 07:20:55;;;;;;;;;;;;;;;10.73;60.12;100741.31;5282362;27;19934;-85
2024/04/20 07:23:21;;;;;;;;;;;;;;;10.93;57.75;100746.38;5282836;27;19927;-85
2024/04/20 07:25:46;;;;;;;;;;;;;;;10.90;57.23;100747.31;5312882;27;19926;-85
2024/04/20 07:28:12;;;;;;;;;;;;;;;10.92;57.73;100747.28;5282260;27;19997;-86
2024/04/20 07:30:40;;;;;;;;;;;;;;;10.93;57.90;100751.53;5254622;27;20329;-84
2024/04/20 07:33:05;;;;;;;;;;;;;;;11.07;58.02;100743.91;5254058;27;19930;-83
2024/04/20 07:35:30;;;;;;;;;;;;;;;11.33;57.18;100741.81;5282028;27;19938;-83
2024/04/20 07:37:56;;;;;;;;;;;;;;;11.56;57.22;100744.06;5281876;27;19938;-83
2024/04/20 07:40:21;;;;;;;;;;;;;;;11.73;56.87;100735.44;5282246;27;19946;-84
2024/04/20 07:42:47;;;;;;;;;;;;;;;11.70;57.21;100732.97;5312431;27;19992;-83
2024/04/20 07:45:12;;;;;;;;;;;;;;;11.94;56.14;100741.28;5254208;27;20337;-83
2024/04/20 07:47:37;;;;;;;;;;;;;;;12.03;56.14;100735.59;5281671;27;20272;-84
2024/04/20 07:50:03;;;;;;;;;;;;;;;12.26;56.04;100735.19;5281856;27;19927;-84
2024/04/20 07:52:28;;;;;;;;;;;;;;;12.32;55.13;100741.81;5282378;27;19938;-84
2024/04/20 07:54:53;;;;;;;;;;;;;;;12.45;55.29;100747.19;5282165;27;19989;-84
2024/04/20 07:57:19;;;;;;;;;;;;;;;12.42;55.10;100745.59;5312405;27;19935;-84
2024/04/20 07:59:45;;;;;;;;;;;;;;;12.57;55.41;100746.50;5282265;27;19927;-84
2024/04/20 08:02:10;;;;;;;;;;;;;;;12.70;54.06;100744.91;5311855;27;20284;-84
2024/04/20 08:04:36;;;;;;;;;;;;;;;12.87;52.66;100746.53;5253816;27;19938;-84
2024/04/20 08:07:01;;;;;;;;;;;;;;;13.01;52.88;100741.41;5282234;27;19954;-84
2024/04/20 08:09:27;;;;;;;;;;;;;;;13.16;52.35;100747.47;5311881;27;20241;-83
2024/04/20 08:11:52;;;;;;;;;;;;;;;13.37;51.49;100740.22;5282231;27;19969;-84
2024/04/20 08:14:17;;;;;;;;;;;;;;;13.45;50.85;100738.03;5312377;27;19927;-84
2024/04/20 08:16:43;;;;;;;;;;;;;;;13.46;49.93;100737.94;5253422;27;19939;-83
2024/04/20 08:19:08;;;;;;;;;;;;;;;13.32;50.74;100742.28;5281680;27;19938;-84
2024/04/20 08:21:34;;;;;;;;;;;;;;;13.51;50.56;100740.28;5282060;27;19926;-84
2024/04/20 08:23:59;;;;;;;;;;;;;;;13.75;50.54;100743.16;5282064;27;20356;-83
2024/04/20 08:26:25;;;;;;;;;;;;;;;13.90;50.79;100744.84;5281892;27;20261;-84
2024/04/20 08:28:50;;;;;;;;;;;;;;;13.92;47.78;100744.75;5253662;27;19992;-84
2024/04/20 08:31:16;;;;;;;;;;;;;;;13.90;48.73;100749.22;5281399;27;19926;-83
2024/04/20 08:33:41;;;;;;;;;;;;;;;13.98;47.77;100740.00;5281591;27;20015;-83
2024/04/20 08:36:07;;;;;;;;;;;;;;;14.17;48.16;100731.09;5253018;27;20361;-84
2024/04/20 08:38:32;;;;;;;;;;;;;;;14.44;47.26;100737.13;5281241;27;20428;-84
2024/04/20 08:41:00;;;;;;;;;;;;;;;14.34;47.01;100733.44;5253220;27;20001;-84
2024/04/20 08:43:25;;;;;;;;;;;;;;;14.36;46.89;100739.41;5311330;27;19997;-84
2024/04/20 08:45:53;;;;;;;;;;;;;;;14.30;47.50;100742.38;5281497;27;20257;-84
2024/04/20 08:48:18;;;;;;;;;;;;;;;14.44;47.22;100731.09;5253491;27;20387;-83
2024/04/20 08:50:44;;;;;;;;;;;;;;;14.67;47.81;100738.31;5281293;27;19935;-83
2024/04/20 08:53:09;;;;;;;;;;;;;;;14.80;47.70;100726.19;5311617;27;19946;-84
2024/04/20 08:55:34;;;;;;;;;;;;;;;15.06;46.52;100724.47;5281709;27;19937;-84
2024/04/20 08:58:00;;;;;;;;;;;;;;;15.24;45.42;100716.34;5280955;27;19938;-84
2024/04/20 09:00:25;;;;;;;;;;;;;;;15.42;44.99;100712.53;5253386;27;19941;-84
2024/04/20 09:02:51;;;;;;;;;;;;;;;15.48;43.98;100717.34;5253314;27;19926;-84
2024/04/20 09:05:16;;;;;;;;;;;;;;;15.37;44.92;100717.22;5281104;27;19934;-83
2024/04/20 09:07:41;;;;;;;;;;;;;;;15.52;44.59;100717.94;5253305;27;19926;-84
2024/04/20 09:10:07;;;;;;;;;;;;;;;15.35;45.07;100725.16;5311316;27;20241;-85
2024/04/20 09:12:32;;;;;;;;;;;;;;;15.39;44.28;100720.56;5311060;27;19926;-84
2024/04/20 09:14:57;;;;;;;;;;;;;;;15.41;43.68;100710.84;5311130;27;19926;-85
2024/04/20 09:17:23;;;;;;;;;;;;;;;15.50;44.54;100703.25;5254042;27;20423;-84
2024/04/20 09:19:49;;;;;;;;;;;;;;;15.70;45.38;100708.91;5256423;27;19931;-84
2024/04/20 09:22:15;;;;;;;;;;;;;;;15.87;44.86;100715.56;5256305;27;19927;-84
2024/04/20 09:24:40;;;;;;;;;;;;;;;16.03;44.45;100716.19;5284223;27;19996;-84
2024/04/20 09:27:09;;;;;;;;;;;;;;;16.02;43.49;100714.47;5283716;27;19945;-84
2024/04/20 09:29:34;;;;;;;;;;;;;;;16.07;43.40;100712.41;5284105;27;19927;-84
2024/04/20 09:32:00;;;;;;;;;;;;;;;16.05;43.04;100714.28;5284355;27;19926;-84
2024/04/20 09:34:25;;;;;;;;;;;;;;;16.21;43.26;100709.63;5255873;27;19926;-84
2024/04/20 09:36:51;;;;;;;;;;;;;;;16.40;42.60;100709.16;5255992;27;19938;-84
2024/04/20 09:39:16;;;;;;;;;;;;;;;16.66;41.41;100701.22;5284052;27;19927;-84
2024/04/20 09:41:43;;;;;;;;;;;;;;;16.79;41.16;100700.22;5313742;27;20352;-83
2024/04/20 09:44:08;;;;;;;;;;;;;;;17.05;40.11;100700.91;5284059;27;19926;-84
2024/04/20 09:46:34;;;;;;;;;;;;;;;17.25;39.01;100702.03;5283694;27;19927;-84
2024/04/20 09:49:01;;;;;;;;;;;;;;;17.29;38.37;100692.16;5283267;26;19996;-84
2024/04/20 09:51:28;;;;;;;;;;;;;;;17.28;39.17;100691.34;5283976;27;19935;-84
2024/04/20 09:53:54;;;;;;;;;;;;;;;17.46;38.16;100684.72;5284284;27;20265;-84
2024/04/20 09:56:19;;;;;;;;;;;;;;;17.59;36.21;100687.19;5283978;27;19935;-84
2024/04/20 09:58:45;;;;;;;;;;;;;;;17.57;32.79;100683.06;5256120;27;19926;-84
2024/04/20 10:01:10;;;;;;;;;;;;;;;17.62;32.96;100683.53;5255747;27;19970;-84
2024/04/20 10:03:36;;;;;;;;;;;;;;;17.68;35.62;100683.03;5284002;27;19927;-84
2024/04/20 10:06:02;;;;;;;;;;;;;;;17.77;35.23;100682.38;5284098;27;19934;-84
2024/04/20 10:08:27;;;;;;;;;;;;;;;17.97;35.79;100678.19;5255558;27;19988;-84
2024/04/20 10:10:52;;;;;;;;;;;;;;;18.29;35.31;100679.09;5283586;27;19934;-84
2024/04/20 10:13:18;;;;;;;;;;;;;;;18.51;35.26;100678.19;5283786;27;19934;-85
2024/04/20 10:15:44;;;;;;;;;;;;;;;18.66;35.50;100673.50;5283616;27;19937;-84
2024/04/20 10:18:09;;;;;;;;;;;;;;;18.82;33.90;100667.84;5284048;27;19926;-84
2024/04/20 10:20:35;;;;;;;;;;;;;;;18.84;34.63;100669.38;5255358;27;19997;-84
2024/04/20 10:23:01;;;;;;;;;;;;;;;18.66;34.70;100670.03;5283461;27;19942;-84
2024/04/20 10:25:31;;;;;;;;;;;;;;;18.62;34.69;100659.78;5283199;27;20357;-84
2024/04/20 10:27:56;;;;;;;;;;;;;;;18.73;34.76;100650.25;5313156;27;19941;-84
2024/04/20 10:30:22;;;;;;;;;;;;;;;18.65;35.38;100652.66;5283330;27;19926;-84
2024/04/20 10:32:50;;;;;;;;;;;;;;;18.83;36.13;100651.16;5313481;27;20316;-84
2024/04/20 10:35:21;;;;;;;;;;;;;;;18.91;33.97;100653.97;5313304;27;19966;-84
2024/04/20 10:38:03;;;;;;;;;;;;;;;18.99;33.21;100653.34;5283939;27;19934;-84
2024/04/20 10:40:30;;;;;;;;;;;;;;;19.10;32.47;100650.63;5254756;27;19938;-83
2024/04/20 10:43:07;;;;;;;;;;;;;;;18.97;31.51;100647.38;5283546;27;19930;-84
2024/04/20 10:45:32;;;;;;;;;;;;;;;18.92;30.76;100642.53;5283420;27;19934;-84
2024/04/20 10:47:58;;;;;;;;;;;;;;;18.91;30.60;100633.00;5254786;27;19926;-84
2024/04/20 10:51:29;;;;;;;;;;;;;;;19.01;30.51;100639.13;5620235;25;19938;-84
2024/04/20 10:53:59;;;;;;;;;;;;;;;19.04;30.56;100632.78;5620585;25;19994;-85
2024/04/20 10:56:24;;;;;;;;;;;;;;;19.10;30.92;100643.59;5587574;25;20356;-85
2024/04/20 10:58:49;;;;;;;;;;;;;;;19.22;30.65;100636.50;5619105;25;20653;-84
2024/04/20 11:01:15;;;;;;;;;;;;;;;19.21;30.34;100637.44;5618915;25;20455;-84
2024/04/20 11:03:41;;;;;;;;;;;;;;;19.27;30.20;100633.47;5587358;25;20233;-84
2024/04/20 11:06:06;;;;;;;;;;;;;;;19.30;31.15;100638.47;5587506;25;19974;-85
2024/04/20 11:08:31;;;;;;;;;;;;;;;19.35;30.61;100626.59;5586811;25;19931;-85
2024/04/20 11:11:04;;;;;;;;;;;;;;;19.18;32.38;100625.44;5620565;25;19950;-84
2024/04/20 11:13:29;;;;;;;;;;;;;;;19.07;31.84;100620.25;5557092;25;19938;-84
2024/04/20 11:15:55;;;;;;;;;;;;;;;19.20;31.99;100618.25;5555623;25;20011;-85
2024/04/20 11:18:20;;;;;;;;;;;;;;;19.18;32.05;100612.31;5618717;25;19938;-84
2024/04/20 11:20:45;;;;;;;;;;;;;;;19.25;32.16;100610.00;5587005;25;19933;-84
2024/04/20 11:23:11;;;;;;;;;;;;;;;19.34;32.07;100608.38;5555012;25;19934;-84
2024/04/20 11:25:36;;;;;;;;;;;;;;;19.37;31.64;100608.97;5587076;25;19934;-84
2024/04/20 11:28:02;;;;;;;;;;;;;;;19.20;32.52;100597.28;5586872;25;19933;-84
2024/04/20 11:30:27;;;;;;;;;;;;;;;19.14;33.10;100592.56;5555297;25;19934;-85
2024/04/20 11:32:58;;;;;;;;;;;;;;;19.06;32.79;100600.22;5586867;25;19997;-84
2024/04/20 11:35:24;;;;;;;;;;;;;;;19.16;32.60;100589.78;5587695;25;20274;-84
2024/04/20 11:37:49;;;;;;;;;;;;;;;19.27;31.95;100594.13;5586374;25;20347;-84
2024/04/20 11:40:15;;;;;;;;;;;;;;;19.52;32.40;100588.44;5555243;25;19953;-84
2024/04/20 11:42:43;;;;;;;;;;;;;;;19.69;31.91;100587.81;5586838;25;19958;-84
2024/04/20 11:45:15;;;;;;;;;;;;;;;19.81;31.81;100585.91;5555441;25;19927;-85
2024/04/20 11:47:41;;;;;;;;;;;;;;;19.91;30.74;100585.94;5556501;25;19931;-85
2024/04/20 11:50:07;;;;;;;;;;;;;;;19.86;30.62;100588.13;5555218;25;19927;-84
2024/04/20 11:55:16;;;;;;;;;;;;;;;19.91;30.46;100585.94;5591585;25;20362;-85
2024/04/20 11:57:41;;;;;;;;;;;;;;;19.83;30.98;100585.75;5586456;25;19926;-85
2024/04/20 12:00:09;;;;;;;;;;;;;;;20.00;31.79;100585.94;5618020;25;20308;-84
2024/04/20 12:02:35;;;;;;;;;;;;;;;20.10;30.45;100580.69;5572628;25;19930;-85
2024/04/20 12:05:00;;;;;;;;;;;;;;;20.19;29.44;100582.50;5570030;25;19926;-85
2024/04/20 12:07:25;;;;;;;;;;;;;;;20.25;26.86;100581.09;5601338;25;20355;-85
2024/04/20 12:09:51;;;;;;;;;;;;;;;20.19;27.13;100573.78;5569879;25;20376;-85
2024/04/20 12:12:16;;;;;;;;;;;;;;;20.18;27.49;100572.97;5603516;25;19926;-85
2024/04/20 12:14:41;;;;;;;;;;;;;;;20.17;27.75;100566.06;5570000;25;19926;-85
2024/04/20 12:17:07;;;;;;;;;;;;;;;20.32;25.56;100569.91;5570051;25;19930;-84
2024/04/20 12:19:32;;;;;;;;;;;;;;;20.40;26.40;100563.13;5538749;25;19926;-84
2024/04/20 12:21:58;;;;;;;;;;;;;;;20.30;26.93;100563.97;5569464;25;19927;-84
2024/04/20 12:24:23;;;;;;;;;;;;;;;20.25;26.90;100562.72;5569957;25;19951;-85
2024/04/20 12:26:48;;;;;;;;;;;;;;;20.19;26.30;100558.84;5569757;25;19950;-85
2024/04/20 12:29:14;;;;;;;;;;;;;;;20.25;27.43;100558.28;5569624;25;19938;-85
2024/04/20 12:31:39;;;;;;;;;;;;;;;20.21;26.75;100562.16;5603126;25;19926;-85
2024/04/20 12:34:05;;;;;;;;;;;;;;;20.31;27.71;100563.00;5538357;25;19938;-84
2024/04/20 12:36:30;;;;;;;;;;;;;;;20.52;27.00;100554.16;5569315;25;19938;-85
2024/04/20 12:38:56;;;;;;;;;;;;;;;20.70;26.85;100556.91;5569694;25;19934;-85